Página principal
METAR-TAF:

METAR-TAF

Aeroportos :

Aeroporto Moscovo Sheremetievo

Moscovo-Sheremetyevo, Rússia

latitude: 55-58N, longitude: 037-25E, altura: 190 m

Observação actual do tempo

O boletim foi feito há 19 minutos, às 22:30 UTC
Vento 4 kt de oeste
Temperatura 16°C
Humidade 77%
Pressão 1017 hPa
Visibilidade 10 km ou mais
sem nuvens abaixo de 1500 metros e sem cumulonimbus

METAR: UUEE 192230Z 26002MPS CAVOK 16/12 Q1017 R06R/CLRD62 NOSIG

Hora: 01:49 (22:49 UTC)

Previsão

O boletim foi feito há 2 horas e 52 minutos, às 19:57 UTC
Previsão válida de 19 às 21 UTC a 20 às 21 UTC
Vento 2 kt com direcção variável
Visibilidade 10 km ou mais
sem nuvens abaixo de 1500 metros e sem cumulonimbus

TAF: UUEE 191957Z 1921/2021 VRB01MPS CAVOK TX30/2012Z TN15/2002Z

Observações e previsões do tempo de mais de 4000 aeroportos (mensagens METAR e TAF).

As estações disponíveis são os pontos amarelos e vermelhos sobre o mapa.

Mova o rato sobre o mapa para ver o nome da estação.

Depois clique no ponto para visualizar as observações e previsões meteorológicas.

Para alterar o mapa : clique nos botões verdes com uma cruz preta para aumentar o zoom; no botão verde com uma pitada de zoom; ou nas setas verdes para mapas adjacentes.


METAR-TAF: